createdAt,value
2018-07-05T00:00:22.574Z,0
2018-07-05T00:01:28.121Z,0
2018-07-05T00:02:33.559Z,0
2018-07-05T00:03:38.852Z,0
2018-07-05T00:04:44.000Z,0
2018-07-05T00:05:49.439Z,0
2018-07-05T00:06:55.020Z,0
2018-07-05T00:08:00.474Z,0
2018-07-05T00:09:05.933Z,0
2018-07-05T00:10:11.630Z,0
2018-07-05T00:11:16.523Z,0
2018-07-05T00:12:21.695Z,0
2018-07-05T00:13:41.484Z,0
2018-07-05T00:14:46.664Z,0
2018-07-05T00:15:52.082Z,0
2018-07-05T00:16:57.543Z,0
2018-07-05T00:18:02.155Z,0
2018-07-05T00:19:07.853Z,0
2018-07-05T00:20:13.009Z,0
2018-07-05T00:21:18.455Z,0
2018-07-05T00:22:23.879Z,0
2018-07-05T00:23:28.750Z,0
2018-07-05T00:24:34.687Z,0
2018-07-05T00:25:40.136Z,0
2018-07-05T00:26:45.289Z,0
2018-07-05T00:27:50.425Z,0
2018-07-05T00:28:55.885Z,0
2018-07-05T00:30:01.325Z,0
2018-07-05T00:31:06.622Z,0
2018-07-05T00:32:11.796Z,0
2018-07-05T00:33:17.244Z,0
2018-07-05T00:34:22.578Z,0
2018-07-05T00:35:27.740Z,0
2018-07-05T00:36:32.900Z,0
2018-07-05T00:37:37.799Z,0
2018-07-05T00:38:42.956Z,0
2018-07-05T00:39:48.657Z,0
2018-07-05T00:40:53.817Z,0
2018-07-05T00:41:58.974Z,0
2018-07-05T00:43:04.108Z,0
2018-07-05T00:44:09.298Z,0
2018-07-05T00:45:14.474Z,0
2018-07-05T00:46:20.410Z,0
2018-07-05T00:47:25.567Z,0
2018-07-05T00:48:30.751Z,0
2018-07-05T00:49:35.626Z,0
2018-07-05T00:50:40.544Z,0
2018-07-05T00:51:46.310Z,0
2018-07-05T00:52:51.754Z,0
2018-07-05T00:53:56.909Z,0
2018-07-05T00:55:01.788Z,0
2018-07-05T00:56:06.944Z,0
2018-07-05T00:57:12.395Z,0
2018-07-05T00:58:17.960Z,0
2018-07-05T00:59:23.121Z,0
2018-07-05T01:00:28.892Z,0
2018-07-05T01:01:34.072Z,0
2018-07-05T01:02:39.231Z,0
2018-07-05T01:03:44.601Z,0
2018-07-05T01:04:49.749Z,0
2018-07-05T01:05:54.337Z,0
2018-07-05T01:07:00.036Z,0
2018-07-05T01:08:04.919Z,0
2018-07-05T01:09:09.795Z,0
2018-07-05T01:10:15.554Z,0
2018-07-05T01:11:20.744Z,0
2018-07-05T01:12:25.740Z,0
2018-07-05T01:13:30.898Z,0
2018-07-05T01:14:36.339Z,0
2018-07-05T01:15:41.526Z,0
2018-07-05T01:16:46.144Z,0
2018-07-05T01:17:51.319Z,0
2018-07-05T01:18:56.456Z,0
2018-07-05T01:20:01.905Z,0
2018-07-05T01:21:06.521Z,0
2018-07-05T01:22:12.095Z,0
2018-07-05T01:23:17.278Z,0
2018-07-05T01:24:22.729Z,0
2018-07-05T01:25:27.841Z,0
2018-07-05T01:26:32.739Z,0
2018-07-05T01:27:37.749Z,0
2018-07-05T01:28:43.211Z,0
2018-07-05T01:29:48.409Z,0
2018-07-05T01:30:53.815Z,0
2018-07-05T01:31:59.277Z,0
2018-07-05T01:33:04.747Z,0
2018-07-05T01:34:10.590Z,0
2018-07-05T01:35:15.769Z,0
2018-07-05T01:36:21.228Z,0
2018-07-05T01:37:40.995Z,0
2018-07-05T01:38:46.439Z,0
2018-07-05T01:39:52.152Z,0
2018-07-05T01:40:57.042Z,0
2018-07-05T01:42:02.210Z,0
2018-07-05T01:43:07.622Z,0
2018-07-05T01:44:12.216Z,0
2018-07-05T01:45:17.369Z,0
2018-07-05T01:46:23.095Z,0
2018-07-05T01:47:28.530Z,0
2018-07-05T01:48:34.307Z,0
2018-07-05T01:49:39.753Z,0
2018-07-05T01:50:45.198Z,0
2018-07-05T01:51:50.892Z,0
2018-07-05T01:52:56.343Z,0
2018-07-05T01:54:00.938Z,0
2018-07-05T01:55:05.779Z,0
2018-07-05T01:56:10.666Z,0
2018-07-05T01:57:15.544Z,0
2018-07-05T01:58:20.384Z,0
2018-07-05T01:59:25.060Z,0
2018-07-05T02:00:30.565Z,0
2018-07-05T02:01:36.042Z,0
2018-07-05T02:02:41.212Z,0
2018-07-05T02:03:46.497Z,0
2018-07-05T02:04:51.669Z,0
2018-07-05T02:05:56.835Z,0
2018-07-05T02:07:02.410Z,0
2018-07-05T02:08:07.601Z,0
2018-07-05T02:09:12.500Z,0
2018-07-05T02:10:18.005Z,0
2018-07-05T02:11:23.442Z,0
2018-07-05T02:12:28.971Z,0
2018-07-05T02:13:34.424Z,0
2018-07-05T02:14:39.870Z,0
2018-07-05T02:15:45.621Z,0
2018-07-05T02:16:51.064Z,0
2018-07-05T02:17:56.246Z,0
2018-07-05T02:19:01.942Z,0
2018-07-05T02:20:06.543Z,0
2018-07-05T02:21:11.759Z,0
2018-07-05T02:22:17.550Z,0
2018-07-05T02:23:22.448Z,0
2018-07-05T02:24:27.782Z,0
2018-07-05T02:25:32.950Z,0
2018-07-05T02:26:38.388Z,0
2018-07-05T02:27:44.240Z,0
2018-07-05T02:28:49.696Z,0
2018-07-05T02:29:55.130Z,0
2018-07-05T02:31:00.862Z,0
2018-07-05T02:32:06.316Z,0
2018-07-05T02:33:11.763Z,0
2018-07-05T02:34:16.710Z,0
2018-07-05T02:35:21.874Z,0
2018-07-05T02:36:27.447Z,0
2018-07-05T02:37:32.896Z,0
2018-07-05T02:38:38.089Z,0
2018-07-05T02:39:43.909Z,0
2018-07-05T02:40:49.354Z,0
2018-07-05T02:41:54.804Z,0
2018-07-05T02:43:00.497Z,0
2018-07-05T02:44:05.653Z,0
2018-07-05T02:45:10.817Z,0
2018-07-05T02:46:16.511Z,0
2018-07-05T02:47:21.672Z,0
2018-07-05T02:48:26.914Z,0
2018-07-05T02:49:32.363Z,0
2018-07-05T02:50:37.531Z,0
2018-07-05T02:51:43.326Z,0
2018-07-05T02:52:48.767Z,0
2018-07-05T02:53:53.936Z,0
2018-07-05T02:54:59.514Z,0
2018-07-05T02:56:04.392Z,0
2018-07-05T02:57:09.840Z,0
2018-07-05T02:58:15.354Z,0
2018-07-05T02:59:20.797Z,0
2018-07-05T03:00:25.744Z,0
2018-07-05T03:01:30.926Z,0
2018-07-05T03:02:36.100Z,0
2018-07-05T03:03:41.788Z,0
2018-07-05T03:04:47.241Z,0
2018-07-05T03:05:52.677Z,0
2018-07-05T03:06:58.371Z,0
2018-07-05T03:08:03.236Z,0
2018-07-05T03:09:08.121Z,0
2018-07-05T03:10:13.524Z,0
2018-07-05T03:11:18.975Z,0
2018-07-05T03:12:24.142Z,0
2018-07-05T03:13:30.496Z,0
2018-07-05T03:14:35.928Z,0
2018-07-05T03:15:41.632Z,0
2018-07-05T03:16:47.073Z,0
2018-07-05T03:17:52.270Z,0
2018-07-05T03:18:57.677Z,0
2018-07-05T03:20:03.127Z,0
2018-07-05T03:21:08.296Z,0
2018-07-05T03:22:13.789Z,0
2018-07-05T03:23:19.238Z,0
2018-07-05T03:25:44.520Z,0
2018-07-05T03:26:49.950Z,0
2018-07-05T03:27:55.662Z,0
2018-07-05T03:29:00.552Z,0
2018-07-05T03:30:05.994Z,0
2018-07-05T03:31:11.677Z,0
2018-07-05T03:32:17.111Z,0
2018-07-05T03:33:22.553Z,0
2018-07-05T03:34:28.209Z,0
2018-07-05T03:35:33.670Z,6
2018-07-05T03:36:39.171Z,6
2018-07-05T03:37:44.316Z,6
2018-07-05T03:38:49.471Z,6
2018-07-05T03:40:39.501Z,6
2018-07-05T03:41:44.681Z,6
2018-07-05T03:42:50.249Z,24
2018-07-05T03:43:55.403Z,24
2018-07-05T03:45:00.554Z,24
2018-07-05T03:46:05.680Z,24
2018-07-05T03:47:10.569Z,24
2018-07-05T03:48:15.723Z,24
2018-07-05T03:49:21.454Z,24
2018-07-05T03:50:26.892Z,24
2018-07-05T03:51:32.420Z,24
2018-07-05T03:52:37.744Z,24
2018-07-05T03:53:43.196Z,24
2018-07-05T03:54:48.995Z,24
2018-07-05T03:55:54.153Z,24
2018-07-05T03:56:59.309Z,40
2018-07-05T03:58:05.123Z,40
2018-07-05T03:59:10.001Z,40
2018-07-05T04:00:14.892Z,40
2018-07-05T04:01:20.307Z,40
2018-07-05T04:02:25.758Z,40
2018-07-05T04:03:31.245Z,40
2018-07-05T04:04:36.843Z,55
2018-07-05T04:05:42.380Z,55
2018-07-05T04:06:48.119Z,55
2018-07-05T04:07:52.980Z,55
2018-07-05T04:08:58.424Z,55
2018-07-05T04:10:33.582Z,55
2018-07-05T04:11:39.012Z,55
2018-07-05T04:12:44.523Z,55
2018-07-05T04:13:49.966Z,55
2018-07-05T04:14:55.404Z,55
2018-07-05T04:16:00.803Z,55
2018-07-05T04:17:05.134Z,55
2018-07-05T04:18:10.011Z,55
2018-07-05T04:19:15.835Z,55
2018-07-05T04:20:20.446Z,55
2018-07-05T04:21:25.578Z,55
2018-07-05T04:22:31.031Z,55
2018-07-05T04:23:36.477Z,55
2018-07-05T04:24:42.009Z,55
2018-07-05T04:25:47.469Z,71
2018-07-05T04:26:52.929Z,71
2018-07-05T04:27:58.717Z,71
2018-07-05T04:29:03.333Z,71
2018-07-05T04:30:08.226Z,71
2018-07-05T04:31:13.804Z,71
2018-07-05T04:32:19.244Z,48
2018-07-05T04:33:24.860Z,48
2018-07-05T04:34:30.728Z,64
2018-07-05T04:35:35.597Z,64
2018-07-05T04:36:41.028Z,64
2018-07-05T04:37:46.181Z,64
2018-07-05T04:38:51.642Z,80
2018-07-05T04:39:57.520Z,80
2018-07-05T04:41:02.963Z,96
2018-07-05T04:42:08.122Z,96
2018-07-05T04:43:14.301Z,96
2018-07-05T04:44:19.364Z,96
2018-07-05T04:45:24.781Z,96
2018-07-05T04:46:30.681Z,96
2018-07-05T04:47:35.852Z,96
2018-07-05T04:48:41.269Z,111
2018-07-05T04:49:46.439Z,111
2018-07-05T04:50:51.880Z,111
2018-07-05T04:51:57.733Z,88
2018-07-05T04:53:02.914Z,88
2018-07-05T04:54:07.800Z,88
2018-07-05T04:55:13.504Z,88
2018-07-05T04:56:18.936Z,88
2018-07-05T04:57:24.383Z,104
2018-07-05T04:58:30.130Z,104
2018-07-05T04:59:35.582Z,104
2018-07-05T05:00:40.705Z,104
2018-07-05T05:01:46.156Z,104
2018-07-05T05:02:51.318Z,104
2018-07-05T05:03:56.721Z,121
2018-07-05T05:05:01.886Z,121
2018-07-05T05:06:06.491Z,121
2018-07-05T05:07:11.957Z,121
2018-07-05T05:08:16.861Z,121
2018-07-05T05:09:21.749Z,121
2018-07-05T05:10:41.259Z,121
2018-07-05T05:11:46.411Z,136
2018-07-05T05:12:51.970Z,136
2018-07-05T05:13:57.407Z,136
2018-07-05T05:15:03.115Z,136
2018-07-05T05:16:09.195Z,112
2018-07-05T05:17:14.636Z,128
2018-07-05T05:18:19.250Z,128
2018-07-05T05:19:25.048Z,128
2018-07-05T05:20:30.232Z,128
2018-07-05T05:21:36.109Z,145
2018-07-05T05:22:41.266Z,145
2018-07-05T05:23:45.864Z,145
2018-07-05T05:24:51.668Z,145
2018-07-05T05:25:57.126Z,145
2018-07-05T05:27:02.292Z,145
2018-07-05T05:28:07.857Z,161
2018-07-05T05:29:13.317Z,161
2018-07-05T05:30:18.753Z,161
2018-07-05T05:31:24.207Z,161
2018-07-05T05:32:29.652Z,161
2018-07-05T05:33:34.939Z,161
2018-07-05T05:34:40.089Z,161
2018-07-05T05:35:44.992Z,152
2018-07-05T05:36:50.685Z,152
2018-07-05T05:37:56.121Z,152
2018-07-05T05:39:01.460Z,152
2018-07-05T05:40:06.568Z,152
2018-07-05T05:41:12.018Z,152
2018-07-05T05:42:17.196Z,152
2018-07-05T05:43:22.604Z,152
2018-07-05T05:44:27.467Z,152
2018-07-05T05:45:32.732Z,169
2018-07-05T05:46:37.925Z,169
2018-07-05T05:47:43.177Z,169
2018-07-05T05:48:49.137Z,169
2018-07-05T05:49:54.580Z,169
2018-07-05T05:51:00.046Z,169
2018-07-05T05:52:05.236Z,185
2018-07-05T05:53:10.670Z,185
2018-07-05T05:54:15.244Z,185
2018-07-05T05:55:21.044Z,185
2018-07-05T05:56:26.205Z,185
2018-07-05T05:57:31.493Z,185
2018-07-05T05:58:36.967Z,185
2018-07-05T05:59:42.417Z,185
2018-07-05T06:00:48.103Z,169
2018-07-05T06:01:53.766Z,169
2018-07-05T06:02:59.500Z,169
2018-07-05T06:04:04.920Z,169
2018-07-05T06:05:10.373Z,169
2018-07-05T06:06:15.545Z,169
2018-07-05T06:07:21.388Z,185
2018-07-05T06:08:26.567Z,185
2018-07-05T06:09:32.234Z,201
2018-07-05T06:10:37.683Z,176
2018-07-05T06:11:43.154Z,176
2018-07-05T06:12:48.387Z,192
2018-07-05T06:13:53.260Z,176
2018-07-05T06:14:58.715Z,176
2018-07-05T06:16:03.799Z,192
2018-07-05T06:17:08.956Z,192
2018-07-05T06:18:14.159Z,192
2018-07-05T06:19:19.882Z,192
2018-07-05T06:20:25.040Z,192
2018-07-05T06:21:30.467Z,209
2018-07-05T06:22:35.648Z,209
2018-07-05T06:23:40.256Z,209
2018-07-05T06:24:45.825Z,209
2018-07-05T06:25:51.283Z,209
2018-07-05T06:26:56.761Z,209
2018-07-05T06:28:02.328Z,209
2018-07-05T06:29:06.938Z,209
2018-07-05T06:30:11.812Z,225
2018-07-05T06:31:17.251Z,225
2018-07-05T06:32:22.720Z,225
2018-07-05T06:33:28.097Z,216
2018-07-05T06:34:33.571Z,216
2018-07-05T06:35:39.008Z,216
2018-07-05T06:36:43.668Z,216
2018-07-05T06:37:48.821Z,216
2018-07-05T06:38:53.700Z,216
2018-07-05T06:39:58.833Z,216
2018-07-05T06:41:03.431Z,216
2018-07-05T06:42:08.334Z,216
2018-07-05T06:43:13.746Z,233
2018-07-05T06:44:19.191Z,233
2018-07-05T06:46:43.976Z,233
2018-07-05T06:47:49.469Z,233
2018-07-05T06:48:54.690Z,233
2018-07-05T06:49:59.582Z,249
2018-07-05T06:51:04.200Z,249
2018-07-05T06:52:09.613Z,249
2018-07-05T06:53:14.481Z,249
2018-07-05T06:54:19.670Z,249
2018-07-05T06:55:25.510Z,249
2018-07-05T06:56:30.697Z,249
2018-07-05T06:57:36.246Z,249
2018-07-05T06:58:41.433Z,249
2018-07-05T06:59:46.898Z,249
2018-07-05T07:00:52.317Z,392
2018-07-05T07:01:57.480Z,370
2018-07-05T07:03:02.934Z,370
2018-07-05T07:04:08.573Z,370
2018-07-05T07:05:14.229Z,386
2018-07-05T07:06:19.384Z,402
2018-07-05T07:07:24.235Z,386
2018-07-05T07:08:29.714Z,386
2018-07-05T07:09:35.135Z,377
2018-07-05T07:10:40.749Z,362
2018-07-05T07:11:46.544Z,337
2018-07-05T07:12:52.107Z,322
2018-07-05T07:13:57.270Z,327
2018-07-05T07:15:02.729Z,322
2018-07-05T07:16:08.956Z,337
2018-07-05T07:17:13.886Z,362
2018-07-05T07:18:18.769Z,362
2018-07-05T07:19:24.201Z,346
2018-07-05T07:20:29.368Z,370
2018-07-05T07:21:35.477Z,353
2018-07-05T07:22:41.120Z,362
2018-07-05T07:23:45.998Z,346
2018-07-05T07:24:51.397Z,346
2018-07-05T07:25:56.282Z,346
2018-07-05T07:27:01.733Z,346
2018-07-05T07:28:06.983Z,377
2018-07-05T07:29:11.868Z,337
2018-07-05T07:30:17.041Z,346
2018-07-05T07:31:22.728Z,346
2018-07-05T07:32:27.840Z,346
2018-07-05T07:33:33.253Z,362
2018-07-05T07:34:38.218Z,386
2018-07-05T07:35:43.398Z,377
2018-07-05T07:36:49.447Z,394
2018-07-05T07:37:54.050Z,370
2018-07-05T07:38:59.240Z,346
2018-07-05T07:40:04.646Z,337
2018-07-05T07:41:09.845Z,327
2018-07-05T07:42:15.291Z,306
2018-07-05T07:43:20.460Z,327
2018-07-05T07:44:25.628Z,322
2018-07-05T07:45:31.966Z,322
2018-07-05T07:46:37.858Z,337
2018-07-05T07:47:43.011Z,337
2018-07-05T07:48:48.420Z,362
2018-07-05T07:49:52.734Z,362
2018-07-05T07:50:57.919Z,370
2018-07-05T07:52:03.329Z,386
2018-07-05T07:53:08.511Z,346
2018-07-05T07:54:13.673Z,362
2018-07-05T07:55:18.862Z,386
2018-07-05T07:56:23.738Z,394
2018-07-05T07:57:29.413Z,377
2018-07-05T07:58:34.610Z,394
2018-07-05T07:59:39.776Z,394
2018-07-05T08:00:45.103Z,410
2018-07-05T08:01:50.573Z,427
2018-07-05T08:02:56.081Z,401
2018-07-05T08:04:01.334Z,427
2018-07-05T08:05:05.668Z,352
2018-07-05T08:06:10.557Z,362
2018-07-05T08:07:16.160Z,362
2018-07-05T08:08:21.048Z,370
2018-07-05T08:09:26.286Z,370
2018-07-05T08:10:31.183Z,402
2018-07-05T08:11:36.052Z,386
2018-07-05T08:12:40.936Z,377
2018-07-05T08:13:45.543Z,410
2018-07-05T08:14:51.004Z,394
2018-07-05T08:15:56.727Z,386
2018-07-05T08:17:01.882Z,402
2018-07-05T08:18:06.971Z,402
2018-07-05T08:19:12.348Z,427
2018-07-05T08:20:17.788Z,425
2018-07-05T08:21:23.451Z,441
2018-07-05T08:22:29.458Z,450
2018-07-05T08:23:34.508Z,427
2018-07-05T08:24:40.039Z,434
2018-07-05T08:25:45.490Z,458
2018-07-05T08:26:50.365Z,458
2018-07-05T08:27:56.148Z,458
2018-07-05T08:29:01.318Z,458
2018-07-05T08:30:06.195Z,458
2018-07-05T08:31:10.796Z,458
2018-07-05T08:32:15.977Z,410
2018-07-05T08:33:21.424Z,427
2018-07-05T08:34:26.266Z,458
2018-07-05T08:35:31.090Z,465
2018-07-05T08:36:36.944Z,474
2018-07-05T08:37:42.413Z,465
2018-07-05T08:38:47.608Z,482
2018-07-05T08:39:52.585Z,465
2018-07-05T08:40:57.773Z,449
2018-07-05T08:42:02.948Z,482
2018-07-05T08:43:08.369Z,465
2018-07-05T08:44:13.524Z,449
2018-07-05T08:45:19.004Z,465
2018-07-05T08:46:24.693Z,465
2018-07-05T08:47:29.595Z,482
2018-07-05T08:48:35.360Z,465
2018-07-05T08:49:40.529Z,482
2018-07-05T08:50:45.974Z,482
2018-07-05T08:51:51.970Z,473
2018-07-05T08:52:57.126Z,482
2018-07-05T08:54:02.307Z,465
2018-07-05T08:55:07.131Z,449
2018-07-05T08:56:12.187Z,482
2018-07-05T08:57:17.093Z,482
2018-07-05T08:58:23.206Z,482
2018-07-05T08:59:29.055Z,474
2018-07-05T09:00:34.865Z,458
2018-07-05T09:01:40.041Z,449
2018-07-05T09:02:44.902Z,465
2018-07-05T09:03:50.342Z,465
2018-07-05T09:04:55.379Z,449
2018-07-05T09:06:00.530Z,465
2018-07-05T09:07:06.057Z,482
2018-07-05T09:08:11.499Z,498
2018-07-05T09:09:16.650Z,498
2018-07-05T09:10:21.820Z,498
2018-07-05T09:11:26.987Z,482
2018-07-05T09:12:32.811Z,498
2018-07-05T09:13:38.236Z,498
2018-07-05T09:14:43.458Z,473
2018-07-05T09:15:49.010Z,498
2018-07-05T09:16:54.463Z,473
2018-07-05T09:18:00.600Z,473
2018-07-05T09:19:06.913Z,489
2018-07-05T09:20:12.084Z,473
2018-07-05T09:21:17.256Z,489
2018-07-05T09:22:22.286Z,473
2018-07-05T09:23:27.282Z,473
2018-07-05T09:24:33.239Z,473
2018-07-05T09:25:38.426Z,482
2018-07-05T09:26:43.994Z,498
2018-07-05T09:27:49.424Z,498
2018-07-05T09:28:54.877Z,425
2018-07-05T09:30:00.547Z,458
2018-07-05T09:31:05.470Z,441
2018-07-05T09:32:10.704Z,441
2018-07-05T09:33:15.593Z,482
2018-07-05T09:34:21.107Z,482
2018-07-05T09:35:25.717Z,482
2018-07-05T09:36:31.312Z,482
2018-07-05T09:37:36.908Z,482
2018-07-05T09:38:41.632Z,465
2018-07-05T09:39:47.364Z,482
2018-07-05T09:40:52.523Z,465
2018-07-05T09:41:57.693Z,465
2018-07-05T09:43:02.824Z,482
2018-07-05T09:44:08.332Z,465
2018-07-05T09:45:13.637Z,465
2018-07-05T09:46:19.495Z,465
2018-07-05T09:47:24.671Z,465
2018-07-05T09:48:29.664Z,465
2018-07-05T09:49:35.104Z,449
2018-07-05T09:50:40.574Z,449
2018-07-05T09:51:45.794Z,449
2018-07-05T09:52:51.372Z,449
2018-07-05T09:53:57.371Z,449
2018-07-05T09:55:02.344Z,465
2018-07-05T09:56:06.938Z,465
2018-07-05T09:57:12.109Z,449
2018-07-05T09:58:17.561Z,465
2018-07-05T09:59:22.749Z,465
2018-07-05T10:00:28.027Z,465
2018-07-05T10:01:32.907Z,465
2018-07-05T10:02:38.070Z,465
2018-07-05T10:03:44.360Z,482
2018-07-05T10:04:50.292Z,482
2018-07-05T10:05:55.748Z,482
2018-07-05T10:07:01.255Z,482
2018-07-05T10:08:06.125Z,465
2018-07-05T10:09:11.728Z,482
2018-07-05T10:10:17.300Z,465
2018-07-05T10:11:22.454Z,465
2018-07-05T10:12:28.269Z,465
2018-07-05T10:13:34.736Z,425
2018-07-05T10:14:40.890Z,233
2018-07-05T10:15:46.602Z,353
2018-07-05T10:16:52.057Z,482
2018-07-05T10:17:57.708Z,482
2018-07-05T10:19:02.858Z,482
2018-07-05T10:20:07.753Z,482
2018-07-05T10:21:13.193Z,482
2018-07-05T10:22:18.708Z,482
2018-07-05T10:23:24.147Z,482
2018-07-05T10:24:29.709Z,465
2018-07-05T10:25:34.604Z,482
2018-07-05T10:26:39.831Z,489
2018-07-05T10:27:45.453Z,489
2018-07-05T10:28:50.922Z,489
2018-07-05T10:29:56.408Z,489
2018-07-05T10:31:01.537Z,489
2018-07-05T10:32:05.859Z,473
2018-07-05T10:33:10.739Z,473
2018-07-05T10:34:16.564Z,473
2018-07-05T10:35:21.454Z,473
2018-07-05T10:36:27.599Z,482
2018-07-05T10:37:32.481Z,482
2018-07-05T10:38:37.929Z,498
2018-07-05T10:39:44.007Z,498
2018-07-05T10:40:48.661Z,515
2018-07-05T10:41:54.112Z,498
2018-07-05T10:42:59.537Z,498
2018-07-05T10:44:04.126Z,482
2018-07-05T10:45:09.282Z,482
2018-07-05T10:46:14.160Z,498
2018-07-05T10:47:19.320Z,482
2018-07-05T10:48:24.768Z,482
2018-07-05T10:49:44.587Z,498
2018-07-05T10:50:50.019Z,482
2018-07-05T10:51:55.525Z,458
2018-07-05T10:53:00.391Z,458
2018-07-05T10:54:05.837Z,458
2018-07-05T10:55:11.805Z,458
2018-07-05T10:56:17.288Z,458
2018-07-05T10:57:22.177Z,474
2018-07-05T10:58:27.738Z,465
2018-07-05T10:59:32.912Z,465
2018-07-05T11:00:38.423Z,458
2018-07-05T11:01:43.775Z,491
2018-07-05T11:02:48.668Z,482
2018-07-05T11:03:54.088Z,498
2018-07-05T11:04:58.948Z,498
2018-07-05T11:06:03.538Z,489
2018-07-05T11:07:08.566Z,489
2018-07-05T11:08:14.003Z,482
2018-07-05T11:09:19.465Z,498
2018-07-05T11:10:25.506Z,498
2018-07-05T11:11:30.672Z,498
2018-07-05T11:12:36.360Z,489
2018-07-05T11:13:40.401Z,506
2018-07-05T11:14:45.774Z,522
2018-07-05T11:15:51.790Z,522
2018-07-05T11:16:56.674Z,538
2018-07-05T11:18:02.140Z,513
2018-07-05T11:19:07.646Z,506
2018-07-05T11:20:12.539Z,522
2018-07-05T11:21:17.699Z,522
2018-07-05T11:22:23.144Z,529
2018-07-05T11:23:28.785Z,546
2018-07-05T11:24:34.476Z,529
2018-07-05T11:25:39.942Z,529
2018-07-05T11:26:45.386Z,538
2018-07-05T11:27:51.088Z,522
2018-07-05T11:28:56.527Z,522
2018-07-05T11:30:01.917Z,506
2018-07-05T11:31:06.483Z,498
2018-07-05T11:32:11.394Z,474
2018-07-05T11:33:16.553Z,441
2018-07-05T11:34:22.406Z,467
2018-07-05T11:35:27.325Z,467
2018-07-05T11:36:32.870Z,434
2018-07-05T11:37:38.311Z,434
2018-07-05T11:38:42.894Z,442
2018-07-05T11:39:48.306Z,467
2018-07-05T11:40:53.485Z,441
2018-07-05T11:41:58.939Z,474
2018-07-05T11:43:03.830Z,498
2018-07-05T11:44:09.207Z,491
2018-07-05T11:45:14.096Z,489
2018-07-05T11:46:19.520Z,506
2018-07-05T11:47:25.160Z,515
2018-07-05T11:48:30.280Z,441
2018-07-05T11:49:34.893Z,465
2018-07-05T11:50:40.118Z,482
2018-07-05T11:51:46.165Z,498
2018-07-05T11:52:51.086Z,498
2018-07-05T11:53:56.537Z,482
2018-07-05T11:55:02.440Z,482
2018-07-05T11:56:06.661Z,498
2018-07-05T11:57:11.534Z,498
2018-07-05T11:58:17.329Z,498
2018-07-05T11:59:22.489Z,498
2018-07-05T12:00:27.551Z,467
2018-07-05T12:01:33.027Z,467
2018-07-05T12:02:37.905Z,467
2018-07-05T12:03:43.384Z,482
2018-07-05T12:04:48.836Z,465
2018-07-05T12:05:53.999Z,507
2018-07-05T12:06:59.414Z,491
2018-07-05T12:08:04.595Z,491
2018-07-05T12:09:09.194Z,482
2018-07-05T12:10:14.663Z,483
2018-07-05T12:11:19.852Z,458
2018-07-05T12:12:39.926Z,467
2018-07-05T12:13:45.095Z,458
2018-07-05T12:14:50.857Z,458
2018-07-05T12:15:56.446Z,458
2018-07-05T12:17:01.336Z,450
2018-07-05T12:18:06.232Z,474
2018-07-05T12:19:11.685Z,474
2018-07-05T12:20:17.148Z,458
2018-07-05T12:21:22.597Z,491
2018-07-05T12:22:28.129Z,489
2018-07-05T12:23:33.577Z,538
2018-07-05T12:24:39.108Z,522
2018-07-05T12:25:44.541Z,491
2018-07-05T12:26:49.999Z,474
2018-07-05T12:27:55.756Z,491
2018-07-05T12:29:01.259Z,474
2018-07-05T12:30:06.222Z,474
2018-07-05T12:31:11.454Z,491
2018-07-05T12:32:16.898Z,515
2018-07-05T12:33:22.378Z,522
2018-07-05T12:34:28.055Z,529
2018-07-05T12:35:33.514Z,546
2018-07-05T12:36:39.310Z,513
2018-07-05T12:37:44.603Z,482
2018-07-05T12:38:50.052Z,482
2018-07-05T12:39:55.468Z,498
2018-07-05T12:41:00.629Z,515
2018-07-05T12:42:05.573Z,458
2018-07-05T12:43:10.837Z,458
2018-07-05T12:44:16.041Z,418
2018-07-05T12:45:21.489Z,427
2018-07-05T12:46:41.624Z,410
2018-07-05T12:47:47.082Z,410
2018-07-05T12:48:52.647Z,427
2018-07-05T12:49:57.832Z,427
2018-07-05T12:51:02.717Z,410
2018-07-05T12:52:08.216Z,394
2018-07-05T12:53:13.371Z,386
2018-07-05T12:54:18.816Z,370
2018-07-05T12:55:23.975Z,377
2018-07-05T12:56:29.421Z,370
2018-07-05T12:57:34.820Z,370
2018-07-05T12:58:40.530Z,386
2018-07-05T12:59:45.696Z,417
2018-07-05T13:00:51.130Z,427
2018-07-05T13:01:56.297Z,434
2018-07-05T13:03:01.742Z,467
2018-07-05T13:04:07.591Z,474
2018-07-05T13:05:13.430Z,491
2018-07-05T13:06:18.881Z,474
2018-07-05T13:07:24.632Z,507
2018-07-05T13:08:29.711Z,482
2018-07-05T13:09:35.147Z,507
2018-07-05T13:10:40.458Z,482
2018-07-05T13:11:45.341Z,515
2018-07-05T13:12:50.998Z,498
2018-07-05T13:13:56.725Z,507
2018-07-05T13:15:01.893Z,515
2018-07-05T13:16:06.464Z,531
2018-07-05T13:17:11.962Z,555
2018-07-05T13:18:17.573Z,579
2018-07-05T13:19:23.698Z,619
2018-07-05T13:20:28.278Z,643
2018-07-05T13:21:33.968Z,610
2018-07-05T13:22:38.553Z,619
2018-07-05T13:23:44.001Z,603
2018-07-05T13:24:49.703Z,595
2018-07-05T13:25:55.180Z,562
2018-07-05T13:27:00.844Z,562
2018-07-05T13:28:05.790Z,546
2018-07-05T13:29:10.993Z,555
2018-07-05T13:30:16.165Z,555
2018-07-05T13:31:21.866Z,555
2018-07-05T13:32:27.313Z,522
2018-07-05T13:33:33.012Z,538
2018-07-05T13:34:38.446Z,538
2018-07-05T13:35:44.105Z,506
2018-07-05T13:36:48.955Z,498
2018-07-05T13:37:54.398Z,498
2018-07-05T13:38:59.557Z,491
2018-07-05T13:40:04.264Z,491
2018-07-05T13:41:08.286Z,491
2018-07-05T13:42:13.438Z,474
2018-07-05T13:43:18.334Z,483
2018-07-05T13:44:24.186Z,458
2018-07-05T13:45:30.378Z,507
2018-07-05T13:46:35.859Z,515
2018-07-05T13:47:41.028Z,515
2018-07-05T13:48:46.770Z,458
2018-07-05T13:49:52.229Z,467
2018-07-05T13:50:57.102Z,483
2018-07-05T13:52:01.936Z,474
2018-07-05T13:53:06.539Z,474
2018-07-05T13:54:12.187Z,458
2018-07-05T13:55:17.032Z,467
2018-07-05T13:56:22.482Z,474
2018-07-05T13:57:28.041Z,515
2018-07-05T13:58:33.488Z,522
2018-07-05T13:59:38.657Z,529
2018-07-05T14:00:43.937Z,553
2018-07-05T14:01:49.106Z,570
2018-07-05T14:02:53.756Z,570
2018-07-05T14:03:59.765Z,617
2018-07-05T14:05:04.948Z,617
2018-07-05T14:06:10.278Z,586
2018-07-05T14:07:15.691Z,586
2018-07-05T14:08:20.851Z,579
2018-07-05T14:09:25.859Z,570
2018-07-05T14:10:30.759Z,641
2018-07-05T14:11:36.211Z,594
2018-07-05T14:12:41.358Z,610
2018-07-05T14:13:46.821Z,617
2018-07-05T14:14:52.278Z,586
2018-07-05T14:15:58.070Z,546
2018-07-05T14:17:03.248Z,538
2018-07-05T14:18:08.990Z,515
2018-07-05T14:19:14.181Z,450
2018-07-05T14:20:19.352Z,410
2018-07-05T14:21:25.903Z,370
2018-07-05T14:22:30.790Z,330
2018-07-05T14:23:35.952Z,306
2018-07-05T14:24:42.133Z,312
2018-07-05T14:25:47.506Z,297
2018-07-05T14:26:52.403Z,282
2018-07-05T14:27:58.261Z,297
2018-07-05T14:29:03.703Z,297
2018-07-05T14:30:08.583Z,312
2018-07-05T14:31:14.313Z,306
2018-07-05T14:32:19.492Z,337
2018-07-05T14:33:24.642Z,337
2018-07-05T14:34:30.687Z,352
2018-07-05T14:35:34.986Z,330
2018-07-05T14:36:40.811Z,346
2018-07-05T14:37:45.710Z,346
2018-07-05T14:38:51.357Z,362
2018-07-05T14:39:56.982Z,362
2018-07-05T14:41:01.870Z,362
2018-07-05T14:42:06.462Z,362
2018-07-05T14:43:12.303Z,362
2018-07-05T14:44:17.174Z,362
2018-07-05T14:45:22.341Z,377
2018-07-05T14:46:28.088Z,377
2018-07-05T14:47:33.567Z,377
2018-07-05T14:48:39.103Z,377
2018-07-05T14:49:44.553Z,362
2018-07-05T14:50:50.017Z,362
2018-07-05T14:51:55.830Z,377
2018-07-05T14:53:00.717Z,377
2018-07-05T14:54:05.601Z,370
2018-07-05T14:55:11.117Z,386
2018-07-05T14:56:16.779Z,410
2018-07-05T14:57:22.229Z,377
2018-07-05T14:58:28.069Z,410
2018-07-05T14:59:33.236Z,418
2018-07-05T15:00:38.658Z,434
2018-07-05T15:01:44.092Z,434
2018-07-05T15:02:49.310Z,418
2018-07-05T15:03:54.998Z,434
2018-07-05T15:04:59.881Z,434
2018-07-05T15:06:05.065Z,450
2018-07-05T15:07:10.196Z,467
2018-07-05T15:08:15.086Z,450
2018-07-05T15:09:20.237Z,441
2018-07-05T15:10:25.382Z,458
2018-07-05T15:11:30.827Z,458
2018-07-05T15:12:36.651Z,458
2018-07-05T15:13:42.109Z,441
2018-07-05T15:14:47.030Z,441
2018-07-05T15:15:52.733Z,441
2018-07-05T15:16:58.190Z,450
2018-07-05T15:18:03.675Z,434
2018-07-05T15:19:09.145Z,450
2018-07-05T15:20:14.332Z,482
2018-07-05T15:21:19.219Z,441
2018-07-05T15:22:24.631Z,458